Time;durP1;ratioP1;P1;durP2;ratioP2;P2;SDS_P1;SDS_P2;PMS_P1;PMS_P2;Temp;Humidity;BMP_temperature;BMP_pressure;BME280_temperature;BME280_humidity;BME280_pressure;Samples;Min_cycle;Max_cycle;Signal;HPM_P1;HPM_P2
2022/03/20 00:00:46;;;;;;;197.15;171.68;;;;;;;15.56;30.04;94639.44;5126911;27;20348;-64
2022/03/20 00:03:13;;;;;;;197.35;169.00;;;;;;;15.56;29.74;94641.38;5126443;27;20684;-63
2022/03/20 00:05:39;;;;;;;195.90;169.95;;;;;;;15.56;29.92;94647.53;5125403;27;20053;-63
2022/03/20 00:08:09;;;;;;;197.48;173.65;;;;;;;15.56;29.85;94652.16;5119070;27;20035;-63
2022/03/20 00:10:37;;;;;;;201.35;173.57;;;;;;;15.55;29.77;94648.72;5108935;27;20122;-64
2022/03/20 00:13:09;;;;;;;195.27;170.27;;;;;;;15.53;29.87;94647.63;5117015;27;20522;-64
2022/03/20 00:15:36;;;;;;;196.68;172.23;;;;;;;15.55;29.91;94646.00;5113275;27;20040;-63
2022/03/20 00:18:01;;;;;;;198.18;172.48;;;;;;;15.55;29.79;94642.56;5114862;27;20042;-64
2022/03/20 00:20:27;;;;;;;196.60;171.45;;;;;;;15.54;29.92;94641.81;5119647;27;20035;-64
2022/03/20 00:22:56;;;;;;;198.27;172.95;;;;;;;15.53;29.78;94636.84;5115855;27;20048;-64
2022/03/20 00:25:21;;;;;;;198.25;169.60;;;;;;;15.54;29.92;94641.03;5113244;27;20036;-64
2022/03/20 00:27:47;;;;;;;197.15;173.48;;;;;;;15.53;29.80;94642.97;5122486;27;20066;-64
2022/03/20 00:30:12;;;;;;;195.38;171.88;;;;;;;15.53;29.67;94642.22;5118982;27;20051;-64
2022/03/20 00:32:38;;;;;;;196.80;170.52;;;;;;;15.53;29.95;94642.97;5120931;27;20039;-63
2022/03/20 00:35:04;;;;;;;192.05;167.20;;;;;;;15.53;29.92;94642.22;5127676;27;20158;-64
2022/03/20 00:37:30;;;;;;;201.48;176.73;;;;;;;15.53;29.74;94644.91;5122676;27;20054;-63
2022/03/20 00:39:56;;;;;;;196.30;172.65;;;;;;;15.52;30.02;94638.00;5117403;27;20606;-63
2022/03/20 00:42:22;;;;;;;200.20;174.13;;;;;;;15.52;29.75;94640.72;5116806;27;20123;-64
2022/03/20 00:44:47;;;;;;;197.15;173.57;;;;;;;15.53;30.05;94647.63;5109797;27;20032;-64
2022/03/20 00:47:13;;;;;;;197.52;172.50;;;;;;;15.52;29.95;94644.16;5121984;27;20126;-63
2022/03/20 00:49:39;;;;;;;199.18;172.82;;;;;;;15.53;30.04;94642.97;5120373;27;20043;-63
2022/03/20 00:52:06;;;;;;;196.95;173.43;;;;;;;15.53;29.92;94648.38;5117882;27;20039;-64
2022/03/20 00:54:31;;;;;;;199.55;175.57;;;;;;;15.54;29.95;94654.53;5109446;27;20137;-63
2022/03/20 00:56:58;;;;;;;195.55;170.50;;;;;;;15.53;29.82;94655.69;5111602;27;20138;-64
2022/03/20 00:59:24;;;;;;;198.82;175.52;;;;;;;15.53;30.04;94645.69;5115160;27;20039;-63
2022/03/20 01:01:49;;;;;;;208.43;180.82;;;;;;;15.53;29.85;94653.75;5105533;27;20035;-64
2022/03/20 01:04:16;;;;;;;202.30;177.20;;;;;;;15.52;30.01;94646.84;5112561;27;20089;-64
2022/03/20 01:06:42;;;;;;;206.57;179.45;;;;;;;15.51;30.01;94645.34;5107664;27;20053;-64
2022/03/20 01:09:08;;;;;;;201.38;177.18;;;;;;;15.52;30.01;94646.09;5115944;27;20035;-64
2022/03/20 01:11:34;;;;;;;209.00;181.35;;;;;;;15.52;30.23;94644.16;5110893;27;20044;-63
2022/03/20 01:14:00;;;;;;;206.38;179.05;;;;;;;15.53;29.93;94644.91;5114031;27;20071;-64
2022/03/20 01:16:26;;;;;;;195.60;170.82;;;;;;;15.52;30.00;94633.38;5111146;27;20035;-64
2022/03/20 01:18:51;;;;;;;203.40;176.55;;;;;;;15.51;29.94;94637.25;5115180;27;20043;-63
2022/03/20 01:21:17;;;;;;;200.43;176.50;;;;;;;15.52;30.08;94640.72;5115174;27;20423;-64
2022/03/20 01:23:43;;;;;;;201.32;173.50;;;;;;;15.51;30.09;94633.81;5117489;27;20065;-63
2022/03/20 01:26:09;;;;;;;205.23;180.38;;;;;;;15.53;30.14;94634.13;5120209;27;20047;-63
2022/03/20 01:28:35;;;;;;;197.80;173.25;;;;;;;15.52;29.94;94640.72;5117182;27;20039;-64
2022/03/20 01:31:01;;;;;;;197.68;171.68;;;;;;;15.49;30.17;94629.59;5143387;27;20039;-64
2022/03/20 01:33:26;;;;;;;199.85;172.77;;;;;;;15.52;30.26;94633.38;5122229;27;20047;-64
2022/03/20 01:35:52;;;;;;;196.57;170.25;;;;;;;15.53;30.39;94629.50;5114517;27;20055;-64
2022/03/20 01:38:21;;;;;;;200.27;175.57;;;;;;;15.54;30.32;94633.72;5109318;27;20052;-64
2022/03/20 01:40:47;;;;;;;199.07;173.50;;;;;;;15.55;30.31;94631.78;5122580;27;20055;-64
2022/03/20 01:43:14;;;;;;;199.45;173.20;;;;;;;15.54;30.47;94635.66;5114706;27;20498;-64
2022/03/20 01:45:40;;;;;;;199.20;173.90;;;;;;;15.53;30.40;94628.75;5115006;27;20039;-63
2022/03/20 01:48:05;;;;;;;199.27;174.48;;;;;;;15.50;30.39;94627.66;5118957;27;20039;-64
2022/03/20 01:50:34;;;;;;;194.38;169.77;;;;;;;15.51;30.47;94625.72;5118312;27;20044;-64
2022/03/20 01:53:00;;;;;;;197.73;172.38;;;;;;;15.49;30.35;94626.13;5110092;27;20153;-64
2022/03/20 01:55:28;;;;;;;199.48;173.82;;;;;;;15.49;30.30;94624.19;5120189;27;20065;-63
2022/03/20 01:57:57;;;;;;;197.57;172.93;;;;;;;15.49;30.21;94626.13;5108955;27;20739;-64
2022/03/20 02:00:25;;;;;;;198.68;172.40;;;;;;;15.51;30.28;94621.06;5113946;27;20043;-64
2022/03/20 02:02:52;;;;;;;199.80;174.13;;;;;;;15.51;30.29;94625.72;5123972;27;20453;-64
2022/03/20 02:05:19;;;;;;;201.88;173.35;;;;;;;15.51;30.19;94637.25;5115872;27;20040;-63
2022/03/20 02:07:45;;;;;;;199.90;173.70;;;;;;;15.48;30.36;94628.06;5115026;27;20044;-64
2022/03/20 02:10:11;;;;;;;211.68;183.15;;;;;;;15.48;30.24;94630.78;5120016;27;20130;-63
2022/03/20 02:12:38;;;;;;;198.45;172.65;;;;;;;15.48;30.41;94627.31;5113614;27;20065;-64
2022/03/20 02:15:06;;;;;;;204.32;175.23;;;;;;;15.48;30.26;94622.69;5117685;27;20074;-64
2022/03/20 02:17:34;;;;;;;203.00;176.18;;;;;;;15.47;30.41;94626.56;5110664;27;20114;-63
2022/03/20 02:20:03;;;;;;;200.50;174.63;;;;;;;15.46;30.24;94618.88;5113415;27;20074;-63
2022/03/20 02:22:29;;;;;;;208.35;182.15;;;;;;;15.44;30.26;94627.41;5125392;27;20039;-63
2022/03/20 02:24:55;;;;;;;201.23;176.13;;;;;;;15.43;30.23;94628.56;5113189;27;20070;-64
2022/03/20 02:27:27;;;;;;;202.82;174.48;;;;;;;15.42;30.16;94624.38;5123421;27;20057;-63
2022/03/20 02:30:12;;;;;;;206.45;178.50;;;;;;;15.44;30.15;94626.63;5109671;27;20122;-64
2022/03/20 02:32:41;;;;;;;202.45;175.57;;;;;;;15.40;29.75;94615.19;5120798;27;20043;-64
2022/03/20 02:35:07;;;;;;;207.82;181.10;;;;;;;15.37;29.98;94618.72;5107825;27;20040;-64
2022/03/20 02:37:34;;;;;;;205.05;178.13;;;;;;;15.37;30.07;94622.19;5120569;27;20049;-64
2022/03/20 02:40:02;;;;;;;203.57;176.48;;;;;;;15.38;29.94;94621.00;5120664;27;20043;-64
2022/03/20 02:42:28;;;;;;;200.50;174.40;;;;;;;15.39;30.16;94625.22;5106957;27;20039;-64
2022/03/20 02:44:56;;;;;;;205.20;180.65;;;;;;;15.39;30.03;94621.75;5118376;27;20054;-64
2022/03/20 02:47:23;;;;;;;209.70;181.00;;;;;;;15.38;30.03;94614.84;5116735;27;20490;-64
2022/03/20 02:49:55;;;;;;;200.93;174.73;;;;;;;15.37;30.19;94616.78;5122711;27;20035;-63
2022/03/20 02:52:28;;;;;;;206.30;179.27;;;;;;;15.34;30.00;94614.94;5123214;27;20047;-64
2022/03/20 02:55:01;;;;;;;210.30;181.13;;;;;;;15.33;29.96;94618.03;5106419;28;20515;-64
2022/03/20 02:57:30;;;;;;;208.18;179.73;;;;;;;15.33;30.06;94621.50;5116327;27;20201;-63
2022/03/20 03:00:04;;;;;;;206.15;177.25;;;;;;;15.35;29.93;94621.84;5121331;27;20042;-64
2022/03/20 03:02:34;;;;;;;207.23;179.48;;;;;;;15.36;29.86;94619.91;5109557;27;20062;-64
2022/03/20 03:05:00;;;;;;;210.98;182.55;;;;;;;15.34;29.92;94623.03;5111900;27;20040;-64
2022/03/20 03:07:27;;;;;;;226.95;191.07;;;;;;;15.33;29.99;94626.13;5116697;28;20051;-63
2022/03/20 03:12:37;;;;;;;215.98;183.27;;;;;;;15.34;29.92;94631.09;5106038;27;20115;-63
2022/03/20 03:15:21;;;;;;;207.35;176.07;;;;;;;15.34;29.97;94624.94;5113949;27;20549;-64
2022/03/20 03:17:48;;;;;;;206.98;177.77;;;;;;;15.35;29.76;94634.56;5121309;27;20421;-63
2022/03/20 03:20:14;;;;;;;216.10;184.43;;;;;;;15.33;30.07;94629.59;5112054;27;20067;-64
2022/03/20 03:22:40;;;;;;;195.05;169.60;;;;;;;15.32;29.99;94632.69;5106565;28;20124;-63
2022/03/20 03:25:06;;;;;;;207.38;177.57;;;;;;;15.33;29.99;94634.97;5120408;27;20035;-64
2022/03/20 03:27:32;;;;;;;201.82;174.63;;;;;;;15.32;30.01;94638.09;5108881;28;20119;-64
2022/03/20 03:29:57;;;;;;;224.52;199.57;;;;;;;15.30;30.16;94649.28;5120568;27;20088;-64
2022/03/20 03:32:23;;;;;;;204.00;175.82;;;;;;;15.30;30.02;94645.84;5120884;27;20039;-64
2022/03/20 03:37:33;;;;;;;207.95;174.23;;;;;;;15.28;30.04;94648.19;5123344;27;20084;-64
2022/03/20 03:40:04;;;;;;;200.73;171.38;;;;;;;15.28;29.94;94648.19;5112066;27;20046;-63
2022/03/20 03:42:30;;;;;;;194.07;167.55;;;;;;;15.27;30.10;94647.44;5106476;28;20043;-64
2022/03/20 03:44:57;;;;;;;197.07;169.30;;;;;;;15.28;29.83;94651.66;5120732;28;20050;-62
2022/03/20 03:47:24;;;;;;;196.40;169.35;;;;;;;15.28;29.91;94646.25;5121030;27;20399;-61
2022/03/20 03:49:50;;;;;;;193.02;164.60;;;;;;;15.27;30.00;94641.28;5124147;27;20191;-62
2022/03/20 03:52:15;;;;;;;195.45;168.20;;;;;;;15.27;30.03;94644.75;5119089;27;20038;-62
2022/03/20 03:54:41;;;;;;;211.00;180.82;;;;;;;15.27;29.98;94642.03;5111836;27;20042;-61
2022/03/20 03:57:07;;;;;;;198.63;172.25;;;;;;;15.28;29.91;94648.19;5112799;27;20084;-62
2022/03/20 03:59:33;;;;;;;196.93;170.43;;;;;;;15.27;30.02;94647.44;5115649;27;20131;-61
2022/03/20 04:02:00;;;;;;;206.43;176.07;;;;;;;15.28;29.95;94646.25;5115157;27;20031;-62
2022/03/20 04:04:26;;;;;;;197.30;169.98;;;;;;;15.26;29.82;94647.84;5125983;27;20036;-61
2022/03/20 04:06:52;;;;;;;193.25;166.35;;;;;;;15.27;29.95;94649.38;5130818;27;20033;-61
2022/03/20 04:09:17;;;;;;;200.60;173.38;;;;;;;15.27;29.86;94655.53;5129196;27;20047;-61
2022/03/20 04:11:43;;;;;;;203.40;178.85;;;;;;;15.25;30.02;94646.34;5123357;27;20051;-61
2022/03/20 04:14:08;;;;;;;202.45;176.75;;;;;;;15.26;29.95;94648.63;5118622;27;20451;-61
2022/03/20 04:16:34;;;;;;;225.15;194.15;;;;;;;15.26;29.84;94647.84;5117442;27;20046;-62
2022/03/20 04:18:59;;;;;;;219.20;193.85;;;;;;;15.27;29.92;94655.53;5113480;27;20897;-61
2022/03/20 04:21:25;;;;;;;208.25;179.02;;;;;;;15.27;29.83;94654.75;5126440;27;20137;-62
2022/03/20 04:23:50;;;;;;;202.05;173.95;;;;;;;15.25;29.87;94654.41;5114836;27;20051;-62
2022/03/20 04:26:18;;;;;;;200.15;171.45;;;;;;;15.23;30.10;94660.22;5112801;27;20043;-61
2022/03/20 04:28:46;;;;;;;197.73;169.35;;;;;;;15.25;30.12;94655.19;5129056;27;20051;-61
2022/03/20 04:31:15;;;;;;;196.52;166.63;;;;;;;15.24;29.85;94653.66;5118189;27;20610;-61
2022/03/20 04:33:45;;;;;;;196.45;168.68;;;;;;;15.24;29.97;94661.75;5114434;27;20043;-61
2022/03/20 04:36:11;;;;;;;196.40;168.77;;;;;;;15.23;29.97;94656.78;5109419;27;20407;-61
2022/03/20 04:38:37;;;;;;;192.02;162.00;;;;;;;15.24;29.87;94664.44;5125565;27;20035;-61
2022/03/20 04:41:03;;;;;;;190.82;161.88;;;;;;;15.24;29.83;94664.44;5130582;27;20043;-62
2022/03/20 04:43:29;;;;;;;196.40;168.88;;;;;;;15.23;29.79;94667.56;5116320;27;20055;-62
2022/03/20 04:45:55;;;;;;;195.63;166.82;;;;;;;15.20;29.87;94668.38;5116069;27;20414;-62
2022/03/20 04:59:19;;;;;;;187.88;158.43;;;;;;;15.20;29.77;94671.84;5120853;27;20071;-62
2022/03/20 05:01:44;;;;;;;192.00;163.30;;;;;;;15.19;29.86;94678.41;5118505;27;20074;-62
2022/03/20 05:04:11;;;;;;;189.82;162.35;;;;;;;15.14;29.74;94676.22;5119685;27;20031;-61
2022/03/20 05:06:36;;;;;;;197.18;166.63;;;;;;;15.18;29.79;94687.66;5108950;27;20077;-61
2022/03/20 05:14:30;;;;;;;185.75;159.25;;;;;;;15.21;29.61;94697.59;5114727;27;20057;-61
2022/03/20 05:16:55;;;;;;;188.57;160.68;;;;;;;15.22;29.73;94695.69;5120299;27;20035;-61
2022/03/20 05:19:21;;;;;;;196.57;169.13;;;;;;;15.22;29.61;94695.69;5117780;27;20134;-62
2022/03/20 05:21:47;;;;;;;201.40;171.05;;;;;;;15.23;29.64;94702.59;5114634;27;20390;-62
2022/03/20 05:24:13;;;;;;;195.27;166.40;;;;;;;15.22;29.80;94698.38;5123282;27;20415;-62
2022/03/20 05:26:39;;;;;;;193.77;165.68;;;;;;;15.21;29.50;94697.59;5124394;27;20047;-62
2022/03/20 05:29:05;;;;;;;201.57;173.10;;;;;;;15.24;29.62;94701.41;5124631;27;20445;-61
2022/03/20 05:31:31;;;;;;;204.77;176.52;;;;;;;15.23;29.48;94699.88;5119820;27;20092;-61
2022/03/20 05:33:57;;;;;;;193.43;166.43;;;;;;;15.21;29.34;94694.91;5122135;27;20109;-61
2022/03/20 05:36:23;;;;;;;195.68;168.43;;;;;;;15.22;29.61;94701.06;5119303;27;20035;-62
2022/03/20 05:38:48;;;;;;;193.35;166.30;;;;;;;15.23;29.70;94700.66;5116921;27;20057;-61
2022/03/20 05:43:58;;;;;;;201.50;172.60;;;;;;;15.25;29.52;94694.84;5113959;27;20043;-61
2022/03/20 05:46:23;;;;;;;205.18;174.93;;;;;;;15.27;29.65;94698.63;5120234;27;20673;-62
2022/03/20 05:48:49;;;;;;;198.18;168.80;;;;;;;15.27;29.65;94701.31;5129601;27;20046;-62
2022/03/20 05:51:15;;;;;;;194.73;169.32;;;;;;;15.28;29.38;94702.84;5123478;27;20055;-61
2022/03/20 05:53:41;;;;;;;199.80;172.50;;;;;;;15.28;29.35;94710.16;5107631;27;20113;-61
2022/03/20 05:58:51;;;;;;;198.90;169.35;;;;;;;15.30;29.45;94705.88;5125409;27;20043;-62
2022/03/20 06:01:16;;;;;;;201.88;172.25;;;;;;;15.30;29.30;94703.19;5120971;27;20055;-62
2022/03/20 06:03:42;;;;;;;201.75;174.75;;;;;;;15.31;29.40;94712.78;5123831;27;20067;-61
2022/03/20 06:06:08;;;;;;;199.77;173.23;;;;;;;15.32;29.44;94708.91;5121469;27;20051;-62
2022/03/20 06:08:35;;;;;;;211.27;180.98;;;;;;;15.31;29.51;94707.41;5122087;27;20505;-62
2022/03/20 06:11:01;;;;;;;200.35;172.07;;;;;;;15.33;29.62;94709.66;5114144;27;20031;-62
2022/03/20 06:13:28;;;;;;;198.00;169.93;;;;;;;15.34;29.37;94716.56;5108743;27;20062;-61
2022/03/20 06:15:57;;;;;;;197.85;172.68;;;;;;;15.32;29.41;94716.25;5106072;27;20047;-61
2022/03/20 06:18:25;;;;;;;200.27;171.48;;;;;;;15.31;29.28;94725.50;5113319;27;20776;-61
2022/03/20 06:20:52;;;;;;;205.35;175.02;;;;;;;15.28;29.32;94732.47;5111002;27;20553;-61
2022/03/20 06:23:17;;;;;;;220.50;191.00;;;;;;;15.27;29.46;94728.28;5113726;27;20582;-61
2022/03/20 06:25:43;;;;;;;198.73;172.55;;;;;;;15.30;29.42;94737.47;5111695;27;20058;-61
2022/03/20 06:28:08;;;;;;;199.45;170.75;;;;;;;15.32;29.48;94732.41;5111527;27;20770;-61
2022/03/20 06:30:35;;;;;;;198.95;172.23;;;;;;;15.35;29.20;94740.41;5109988;27;20088;-61
2022/03/20 06:33:03;;;;;;;201.93;173.30;;;;;;;15.37;29.52;94737.31;5108743;27;20051;-61
2022/03/20 06:35:29;;;;;;;219.63;191.07;;;;;;;15.36;29.60;94735.78;5107074;27;20107;-61
2022/03/20 06:37:55;;;;;;;199.48;173.73;;;;;;;15.33;29.54;94737.38;5104298;27;20039;-62
2022/03/20 06:40:21;;;;;;;212.02;183.73;;;;;;;15.36;29.55;94739.25;5106771;27;20059;-61
2022/03/20 06:42:47;;;;;;;227.18;202.02;;;;;;;15.37;29.25;94748.09;5110655;27;20133;-59
2022/03/20 06:45:14;;;;;;;236.90;201.20;;;;;;;15.37;29.60;94745.38;5117515;27;20130;-65
2022/03/20 06:47:41;;;;;;;221.00;191.75;;;;;;;15.37;29.44;94746.16;5113154;27;20411;-62
2022/03/20 06:50:09;;;;;;;201.38;172.73;;;;;;;15.36;29.52;94744.63;5112872;27;20046;-61
2022/03/20 06:52:38;;;;;;;198.82;169.45;;;;;;;15.32;29.49;94752.03;5116763;27;20104;-62
2022/03/20 06:55:05;;;;;;;200.43;171.93;;;;;;;15.28;29.72;94750.59;5119583;27;20135;-61
2022/03/20 06:57:31;;;;;;;203.82;177.20;;;;;;;15.26;29.72;94752.94;5112260;27;20508;-61
2022/03/20 07:00:02;;;;;;;213.35;182.15;;;;;;;15.22;29.73;94744.94;5111305;27;20051;-62
2022/03/20 07:02:27;;;;;;;214.73;181.73;;;;;;;15.22;29.79;94754.94;5108860;27;20040;-62
2022/03/20 07:04:53;;;;;;;209.35;179.75;;;;;;;15.22;29.67;94754.94;5109670;27;20129;-62
2022/03/20 07:07:20;;;;;;;206.70;175.95;;;;;;;15.21;29.63;94764.97;5112667;27;20043;-61
2022/03/20 07:09:46;;;;;;;236.05;205.23;;;;;;;15.20;29.73;94766.16;5105407;27;20130;-62
2022/03/20 07:12:13;;;;;;;197.50;167.45;;;;;;;15.24;29.67;94763.38;5114736;28;20048;-61
2022/03/20 07:14:39;;;;;;;192.70;165.23;;;;;;;15.31;29.51;94764.00;5106987;27;20044;-61
2022/03/20 07:17:09;;;;;;;195.65;166.55;;;;;;;15.36;29.52;94766.19;5110160;27;20048;-60
2022/03/20 07:19:37;;;;;;;197.45;170.10;;;;;;;15.40;29.50;94774.19;5110594;27;20054;-63
2022/03/20 07:22:05;;;;;;;209.02;178.73;;;;;;;15.39;29.66;94784.22;5119749;27;20039;-63
2022/03/20 07:24:33;;;;;;;206.85;178.20;;;;;;;15.40;29.27;94782.28;5112035;27;20059;-64
2022/03/20 07:29:43;;;;;;;200.52;169.55;;;;;;;15.43;29.55;94778.75;5118521;27;20144;-59
2022/03/20 07:32:09;;;;;;;191.63;160.98;;;;;;;15.47;29.51;94784.84;5111521;27;20574;-60
2022/03/20 07:34:37;;;;;;;191.93;164.80;;;;;;;15.48;29.64;94784.41;5114037;27;20043;-61
2022/03/20 07:37:04;;;;;;;194.13;166.35;;;;;;;15.51;29.61;94790.16;5108851;27;20430;-62
2022/03/20 07:39:31;;;;;;;199.52;171.52;;;;;;;15.51;29.61;94788.22;5122113;27;20051;-62
2022/03/20 07:41:57;;;;;;;203.00;173.13;;;;;;;15.52;29.71;94791.66;5119977;27;20486;-61
2022/03/20 07:44:24;;;;;;;211.10;179.60;;;;;;;15.52;29.58;94800.50;5109956;27;20147;-61
2022/03/20 07:46:52;;;;;;;208.98;178.05;;;;;;;15.54;29.41;94789.31;5106455;27;20054;-62
2022/03/20 07:49:20;;;;;;;205.93;176.70;;;;;;;15.55;29.55;94788.13;5100025;27;20158;-62
2022/03/20 07:51:46;;;;;;;218.43;184.63;;;;;;;15.55;29.84;94777.34;5102402;27;20039;-62
2022/03/20 07:54:13;;;;;;;201.13;172.63;;;;;;;15.55;29.71;94782.75;5100326;27;20043;-61
2022/03/20 07:56:38;;;;;;;198.98;171.35;;;;;;;15.56;29.93;94784.25;5109370;27;20386;-61
2022/03/20 07:59:05;;;;;;;197.07;170.77;;;;;;;15.57;29.83;94788.50;5110269;27;20039;-60
2022/03/20 08:01:34;;;;;;;207.65;178.77;;;;;;;15.54;29.75;94781.22;5109428;28;20146;-61
2022/03/20 08:04:00;;;;;;;192.93;165.27;;;;;;;15.57;29.96;94785.81;5114806;27;20129;-61
2022/03/20 08:06:27;;;;;;;198.43;170.20;;;;;;;15.58;29.81;94785.38;5117038;27;20043;-61
2022/03/20 08:08:52;;;;;;;198.77;170.15;;;;;;;15.59;29.95;94786.91;5125407;27;20116;-60
2022/03/20 08:11:19;;;;;;;206.35;177.43;;;;;;;15.60;29.85;94791.09;5123133;27;20047;-62
2022/03/20 08:13:45;;;;;;;206.50;177.90;;;;;;;15.61;29.88;94784.53;5118133;27;20047;-61
2022/03/20 08:16:15;;;;;;;203.40;176.13;;;;;;;15.62;29.96;94787.97;5116199;27;20119;-61
2022/03/20 08:18:44;;;;;;;200.63;172.20;;;;;;;15.63;30.10;94798.34;5110233;27;20050;-60
2022/03/20 08:21:12;;;;;;;213.85;183.05;;;;;;;15.61;30.08;94789.91;5116429;27;20119;-60
2022/03/20 08:23:39;;;;;;;199.00;171.27;;;;;;;15.62;30.09;94794.13;5126799;27;20043;-59
2022/03/20 08:26:08;;;;;;;197.63;173.15;;;;;;;15.65;30.07;94792.53;5117553;27;20074;-60
2022/03/20 08:28:37;;;;;;;198.45;170.48;;;;;;;15.66;30.29;94791.34;5115628;27;20035;-59
2022/03/20 08:31:03;;;;;;;195.13;168.10;;;;;;;15.65;30.35;94796.00;5119326;27;20047;-60
2022/03/20 08:33:30;;;;;;;193.57;167.43;;;;;;;15.64;30.20;94799.09;5134684;27;20128;-59
2022/03/20 08:35:56;;;;;;;190.07;166.85;;;;;;;15.62;30.12;94796.84;5123658;27;20054;-60
2022/03/20 08:38:22;;;;;;;197.43;168.82;;;;;;;15.63;30.21;94794.91;5112780;27;20372;-60
2022/03/20 08:40:47;;;;;;;192.75;166.80;;;;;;;15.63;29.98;94801.03;5116188;27;20041;-59
2022/03/20 08:43:15;;;;;;;219.15;184.98;;;;;;;15.63;30.20;94801.03;5118512;27;20036;-59
2022/03/20 08:45:42;;;;;;;191.43;165.48;;;;;;;15.62;30.25;94799.53;5116177;27;20043;-60
2022/03/20 08:48:09;;;;;;;194.25;168.40;;;;;;;15.60;30.30;94796.50;5114242;27;20188;-59
2022/03/20 08:50:34;;;;;;;194.90;166.80;;;;;;;15.61;30.09;94800.69;5118965;27;20057;-60
2022/03/20 08:53:00;;;;;;;193.82;166.55;;;;;;;15.62;30.16;94799.53;5115152;27;20051;-60
2022/03/20 08:55:25;;;;;;;190.75;162.02;;;;;;;15.62;30.22;94810.31;5121479;27;20039;-59
2022/03/20 08:57:52;;;;;;;235.20;198.32;;;;;;;15.63;29.89;94802.97;5102875;27;20051;-59
2022/03/20 09:00:22;;;;;;;222.88;188.00;;;;;;;15.61;30.13;94819.56;5092405;27;20047;-59
2022/03/20 09:02:49;;;;;;;212.35;180.10;;;;;;;15.59;29.75;94816.56;5094349;27;20040;-59
2022/03/20 09:05:16;;;;;;;222.90;187.55;;;;;;;15.54;29.81;94817.03;5092194;27;20083;-59
2022/03/20 09:07:43;;;;;;;232.70;194.90;;;;;;;15.60;29.77;94817.31;5086489;27;20058;-59
2022/03/20 09:10:10;;;;;;;225.43;188.88;;;;;;;15.58;29.70;94808.91;5083538;27;20043;-58
2022/03/20 09:12:39;;;;;;;220.05;187.45;;;;;;;15.58;29.81;94812.34;5091656;27;20055;-58
2022/03/20 09:15:09;;;;;;;192.00;165.10;;;;;;;15.52;29.39;94810.53;5104942;27;20055;-58
2022/03/20 09:20:20;;;;;;;204.00;171.60;;;;;;;15.53;29.30;94809.34;5108957;27;20052;-60
2022/03/20 09:22:45;;;;;;;193.13;166.20;;;;;;;15.54;29.42;94811.63;5117390;27;20051;-60
2022/03/20 09:25:11;;;;;;;200.30;171.18;;;;;;;15.58;29.34;94814.28;5117381;27;20740;-62
2022/03/20 09:27:37;;;;;;;192.07;166.43;;;;;;;15.59;29.38;94810.41;5112491;27;20500;-60
2022/03/20 09:30:04;;;;;;;191.27;164.27;;;;;;;15.60;29.37;94807.28;5108967;27;20047;-60
2022/03/20 09:32:30;;;;;;;193.73;165.00;;;;;;;15.61;29.43;94813.44;5126202;27;20046;-60
2022/03/20 09:34:55;;;;;;;191.15;163.05;;;;;;;15.63;29.42;94803.75;5120359;27;20039;-60
2022/03/20 09:37:21;;;;;;;194.80;167.65;;;;;;;15.67;29.43;94814.44;5111613;27;20416;-60
2022/03/20 09:39:47;;;;;;;190.75;164.52;;;;;;;15.66;29.69;94811.00;5119768;27;20043;-60
2022/03/20 09:42:13;;;;;;;193.95;168.73;;;;;;;15.67;29.80;94807.13;5128705;27;20074;-60
2022/03/20 09:44:40;;;;;;;191.68;164.52;;;;;;;15.67;29.88;94806.38;5122099;27;20047;-60
2022/03/20 09:47:16;;;;;;;191.23;164.30;;;;;;;15.67;29.86;94811.75;5120394;27;20050;-60
2022/03/20 09:49:46;;;;;;;201.30;172.93;;;;;;;15.66;29.68;94805.59;5110300;27;20092;-61
2022/03/20 09:52:13;;;;;;;191.98;165.45;;;;;;;15.62;29.12;94807.63;5125954;27;20035;-60
2022/03/20 09:54:39;;;;;;;193.75;168.63;;;;;;;15.58;29.08;94806.97;5119862;27;20114;-61
2022/03/20 09:57:07;;;;;;;190.85;165.93;;;;;;;15.61;28.89;94803.41;5114479;27;20559;-60
2022/03/20 09:59:34;;;;;;;191.77;165.30;;;;;;;15.60;28.85;94807.28;5110012;27;20162;-61
2022/03/20 10:02:09;;;;;;;201.52;172.00;;;;;;;15.64;29.17;94807.97;5128757;27;20114;-60
2022/03/20 10:04:57;;;;;;;195.00;168.30;;;;;;;15.71;29.42;94798.94;5126235;27;20050;-59
2022/03/20 10:07:25;;;;;;;192.98;166.57;;;;;;;15.68;29.37;94795.16;5121212;27;20055;-60
2022/03/20 10:10:23;;;;;;;198.18;167.95;;;;;;;15.69;29.30;94793.97;5108958;27;20050;-61
2022/03/20 10:12:55;;;;;;;196.25;165.45;;;;;;;15.66;29.14;94796.75;5115875;27;20055;-60
2022/03/20 10:15:27;;;;;;;195.45;167.57;;;;;;;15.63;29.28;94792.97;5113982;27;20080;-61
2022/03/20 10:18:19;;;;;;;192.60;164.40;;;;;;;15.62;29.05;94794.13;5125738;27;20434;-61
2022/03/20 10:20:46;;;;;;;192.90;163.18;;;;;;;15.61;28.81;94791.84;5115125;27;20410;-60
2022/03/20 10:23:36;;;;;;;192.75;165.93;;;;;;;15.61;28.86;94798.00;5112298;27;20043;-60
2022/03/20 10:26:09;;;;;;;;;;;;;;;15.59;28.55;94797.69;5112575;27;20052;-61
2022/03/20 10:28:43;;;;;;;191.88;159.27;;;;;;;15.57;28.62;94810.84;5119988;27;19930;-61
2022/03/20 10:31:15;;;;;;;192.88;163.07;;;;;;;15.57;28.60;94799.28;5122636;27;20642;-60
2022/03/20 10:33:41;;;;;;;197.75;170.45;;;;;;;15.58;28.61;94796.19;5113426;27;20036;-60
2022/03/20 10:36:10;;;;;;;193.82;167.15;;;;;;;15.49;28.54;94804.03;5118963;27;20658;-61
2022/03/20 10:38:36;;;;;;;191.18;164.90;;;;;;;15.49;28.79;94796.72;5120971;27;20035;-60
2022/03/20 10:41:20;;;;;;;194.75;166.10;;;;;;;15.54;28.52;94797.41;5114873;27;20046;-62
2022/03/20 10:43:47;;;;;;;191.88;164.75;;;;;;;15.52;28.23;94786.28;5117221;27;20032;-61
2022/03/20 10:46:25;;;;;;;194.55;167.93;;;;;;;15.46;28.59;94802.19;5119723;27;20039;-60
2022/03/20 10:48:54;;;;;;;193.80;164.40;;;;;;;15.41;28.59;94795.34;5116654;27;20038;-61
2022/03/20 10:51:37;;;;;;;197.35;166.27;;;;;;;15.33;28.88;94806.69;5121830;27;20864;-60
2022/03/20 10:54:05;;;;;;;194.57;167.85;;;;;;;15.29;28.62;94800.63;5117614;27;20050;-61
2022/03/20 10:56:32;;;;;;;194.55;167.07;;;;;;;15.33;28.75;94809.38;5115833;27;20050;-61
2022/03/20 10:58:58;;;;;;;195.55;169.05;;;;;;;15.37;28.53;94808.13;5125029;27;20041;-61
2022/03/20 11:01:35;;;;;;;200.85;169.63;;;;;;;15.35;28.61;94812.44;5116137;27;20039;-61
2022/03/20 11:04:03;;;;;;;199.07;171.52;;;;;;;15.31;28.58;94807.09;5108339;27;20411;-61
2022/03/20 11:06:29;;;;;;;195.73;168.05;;;;;;;15.24;28.59;94801.09;5112693;28;20039;-61
2022/03/20 11:08:56;;;;;;;204.85;172.38;;;;;;;15.22;28.45;94798.81;5120136;27;20122;-61
2022/03/20 11:11:24;;;;;;;200.00;169.02;;;;;;;15.24;28.43;94806.50;5121258;27;20067;-61
2022/03/20 11:13:50;;;;;;;197.13;165.15;;;;;;;15.25;28.65;94800.69;5120668;27;20043;-61
2022/03/20 11:16:23;;;;;;;196.27;167.07;;;;;;;15.30;28.18;94810.22;5113761;27;20051;-61
2022/03/20 11:18:51;;;;;;;197.18;165.45;;;;;;;15.23;28.54;94807.66;5114493;27;20547;-60
2022/03/20 11:21:23;;;;;;;199.30;169.85;;;;;;;15.24;28.50;94807.25;5121045;27;20055;-60
2022/03/20 11:23:51;;;;;;;196.38;166.38;;;;;;;15.19;28.63;94801.59;5119047;27;20499;-59
2022/03/20 11:26:20;;;;;;;190.52;162.80;;;;;;;15.17;28.50;94802.00;5123232;27;20035;-61
2022/03/20 11:28:53;;;;;;;202.93;171.00;;;;;;;15.21;28.35;94810.78;5108086;28;20046;-60
2022/03/20 11:31:20;;;;;;;203.02;173.52;;;;;;;15.32;28.45;94803.22;5109264;27;20043;-60
2022/03/20 11:33:47;;;;;;;227.82;189.77;;;;;;;15.33;28.09;94812.84;5093026;27;20043;-61
2022/03/20 11:36:13;;;;;;;227.48;191.25;;;;;;;15.33;28.48;94804.00;5093331;27;20170;-60